createdAt,value
2019-03-31T00:01:17.956Z,1.50
2019-03-31T00:03:46.794Z,1.20
2019-03-31T00:06:15.654Z,2.17
2019-03-31T00:08:44.510Z,1.70
2019-03-31T00:11:13.378Z,1.50
2019-03-31T00:13:42.200Z,1.50
2019-03-31T00:16:11.032Z,1.60
2019-03-31T00:18:39.847Z,1.97
2019-03-31T00:21:08.691Z,1.50
2019-03-31T00:23:37.524Z,1.53
2019-03-31T00:26:06.338Z,1.50
2019-03-31T00:28:35.176Z,1.50
2019-03-31T00:31:04.210Z,1.60
2019-03-31T00:33:33.031Z,1.70
2019-03-31T00:36:01.967Z,2.00
2019-03-31T00:38:30.781Z,1.97
2019-03-31T00:40:59.610Z,1.40
2019-03-31T00:43:28.461Z,1.60
2019-03-31T00:45:57.281Z,1.30
2019-03-31T00:48:26.119Z,1.50
2019-03-31T00:50:54.961Z,1.50
2019-03-31T00:53:23.785Z,2.10
2019-03-31T00:55:52.609Z,1.70
2019-03-31T00:58:21.478Z,1.50
2019-03-31T01:01:07.995Z,1.83
2019-03-31T01:03:37.247Z,1.57
2019-03-31T01:06:06.410Z,1.47
2019-03-31T01:08:35.248Z,1.60
2019-03-31T01:11:05.300Z,1.70
2019-03-31T01:13:34.621Z,1.57
2019-03-31T01:16:03.551Z,1.40
2019-03-31T01:18:32.404Z,1.50
2019-03-31T01:21:01.306Z,1.40
2019-03-31T01:23:30.130Z,1.60
2019-03-31T01:26:00.499Z,1.90
2019-03-31T01:28:29.607Z,1.60
2019-03-31T01:30:59.024Z,1.90
2019-03-31T01:33:27.886Z,1.60
2019-03-31T01:35:56.743Z,2.00
2019-03-31T01:38:25.597Z,1.87
2019-03-31T01:40:54.434Z,1.50
2019-03-31T01:43:23.269Z,1.80
2019-03-31T01:45:52.326Z,1.50
2019-03-31T01:48:21.189Z,1.50
2019-03-31T01:50:50.020Z,1.50
2019-03-31T01:53:18.871Z,1.90
2019-03-31T01:55:47.759Z,1.40
2019-03-31T01:58:16.589Z,2.07
2019-03-31T02:00:52.713Z,2.00
2019-03-31T02:03:21.538Z,1.53
2019-03-31T02:05:50.361Z,1.60
2019-03-31T02:08:19.262Z,2.17
2019-03-31T02:10:48.174Z,2.10
2019-03-31T02:13:17.056Z,1.60
2019-03-31T02:15:45.895Z,2.03
2019-03-31T02:18:14.756Z,2.17
2019-03-31T02:20:43.587Z,1.60
2019-03-31T02:23:12.425Z,2.00
2019-03-31T02:25:41.283Z,1.40
2019-03-31T02:28:10.197Z,1.60
2019-03-31T02:30:39.030Z,1.80
2019-03-31T02:33:07.895Z,1.90
2019-03-31T02:35:36.747Z,2.17
2019-03-31T02:38:05.658Z,2.20
2019-03-31T02:40:34.581Z,1.70
2019-03-31T02:43:03.486Z,2.20
2019-03-31T02:45:32.451Z,2.17
2019-03-31T02:48:01.283Z,2.00
2019-03-31T02:50:42.130Z,1.60
2019-03-31T02:53:10.986Z,2.10
2019-03-31T02:55:39.845Z,1.70
2019-03-31T02:58:08.708Z,1.60
2019-03-31T03:00:37.637Z,1.80
2019-03-31T03:03:06.524Z,2.00
2019-03-31T03:05:35.349Z,2.10
2019-03-31T03:08:04.437Z,2.00
2019-03-31T03:10:33.283Z,1.67
2019-03-31T03:13:02.119Z,2.20
2019-03-31T03:15:32.530Z,1.40
2019-03-31T03:18:01.354Z,2.10
2019-03-31T03:20:30.179Z,1.40
2019-03-31T03:22:59.022Z,1.80
2019-03-31T03:25:27.827Z,1.47
2019-03-31T03:27:57.112Z,1.60
2019-03-31T03:30:26.057Z,2.00
2019-03-31T03:33:13.446Z,1.60
2019-03-31T03:35:25.597Z,1.50
2019-03-31T03:37:54.492Z,2.20
2019-03-31T03:40:23.383Z,2.10
2019-03-31T03:42:52.292Z,1.50
2019-03-31T03:45:21.142Z,2.20
2019-03-31T03:47:49.966Z,2.20
2019-03-31T03:50:18.820Z,2.10
2019-03-31T03:52:47.780Z,2.07
2019-03-31T03:55:16.667Z,2.10
2019-03-31T03:57:45.491Z,2.00
2019-03-31T04:00:14.334Z,1.30
2019-03-31T04:02:43.291Z,2.20
2019-03-31T04:05:12.174Z,1.50
2019-03-31T04:07:41.017Z,1.90
2019-03-31T04:10:21.770Z,1.90
2019-03-31T04:12:50.606Z,1.40
2019-03-31T04:15:19.450Z,1.50
2019-03-31T04:17:48.266Z,1.80
2019-03-31T04:20:17.097Z,1.63
2019-03-31T04:22:45.911Z,1.50
2019-03-31T04:25:14.830Z,1.80
2019-03-31T04:27:43.672Z,1.97
2019-03-31T04:30:12.514Z,1.50
2019-03-31T04:32:41.352Z,2.00
2019-03-31T04:35:10.209Z,1.50
2019-03-31T04:37:39.134Z,1.30
2019-03-31T04:40:08.010Z,1.70
2019-03-31T04:42:36.918Z,2.00
2019-03-31T04:45:05.895Z,2.00
2019-03-31T04:47:34.778Z,2.00
2019-03-31T04:50:03.634Z,1.90
2019-03-31T04:52:32.506Z,1.43
2019-03-31T04:55:01.325Z,1.90
2019-03-31T04:57:30.178Z,1.90
2019-03-31T04:59:59.053Z,1.90
2019-03-31T05:02:27.857Z,1.80
2019-03-31T05:04:56.700Z,1.50
2019-03-31T05:07:25.552Z,1.50
2019-03-31T05:09:54.384Z,1.87
2019-03-31T05:12:23.198Z,1.80
2019-03-31T05:14:52.043Z,1.40
2019-03-31T05:17:20.974Z,1.50
2019-03-31T05:19:49.781Z,1.60
2019-03-31T05:22:18.819Z,1.40
2019-03-31T05:24:47.653Z,1.40
2019-03-31T05:27:16.474Z,1.60
2019-03-31T05:29:45.301Z,1.30
2019-03-31T05:32:14.171Z,1.43
2019-03-31T05:34:42.998Z,1.60
2019-03-31T05:37:11.846Z,2.00
2019-03-31T05:39:40.922Z,2.10
2019-03-31T05:42:09.780Z,1.90
2019-03-31T05:44:38.621Z,1.50
2019-03-31T05:47:07.459Z,1.57
2019-03-31T05:49:36.285Z,1.30
2019-03-31T05:52:05.122Z,1.60
2019-03-31T05:54:35.102Z,1.90
2019-03-31T05:57:04.146Z,1.50
2019-03-31T05:59:32.965Z,1.50
2019-03-31T06:02:01.842Z,2.10
2019-03-31T06:04:33.329Z,1.90
2019-03-31T06:07:01.230Z,1.30
2019-03-31T06:09:30.124Z,1.57
2019-03-31T06:11:58.990Z,2.00
2019-03-31T06:14:27.806Z,2.07
2019-03-31T06:16:56.583Z,1.93
2019-03-31T06:19:25.395Z,1.43
2019-03-31T06:21:54.223Z,1.50
2019-03-31T06:24:23.077Z,1.90
2019-03-31T06:26:51.962Z,1.80
2019-03-31T06:29:20.845Z,1.90
2019-03-31T06:31:49.629Z,1.40
2019-03-31T06:34:18.543Z,1.90
2019-03-31T06:36:47.438Z,1.60
2019-03-31T06:39:16.312Z,1.80
2019-03-31T06:41:45.250Z,1.77
2019-03-31T06:44:14.130Z,1.90
2019-03-31T06:46:42.958Z,1.80
2019-03-31T06:49:11.931Z,2.00
2019-03-31T06:51:40.747Z,1.80
2019-03-31T06:54:09.594Z,1.90
2019-03-31T06:56:38.626Z,1.40
2019-03-31T06:59:07.471Z,1.40
2019-03-31T07:01:36.294Z,1.40
2019-03-31T07:04:05.175Z,1.40
2019-03-31T07:06:34.042Z,1.80
2019-03-31T07:09:03.549Z,1.77
2019-03-31T07:11:32.407Z,1.77
2019-03-31T07:14:01.319Z,1.40
2019-03-31T07:16:30.190Z,1.23
2019-03-31T07:18:59.057Z,1.33
2019-03-31T07:21:27.890Z,1.70
2019-03-31T07:23:56.737Z,1.70
2019-03-31T07:26:25.651Z,1.80
2019-03-31T07:28:54.485Z,1.50
2019-03-31T07:31:23.330Z,1.30
2019-03-31T07:33:52.182Z,1.70
2019-03-31T07:36:21.121Z,1.90
2019-03-31T07:38:50.012Z,1.80
2019-03-31T07:41:19.310Z,1.90
2019-03-31T07:43:48.130Z,1.30
2019-03-31T07:46:17.019Z,1.30
2019-03-31T07:48:46.032Z,1.90
2019-03-31T07:51:14.931Z,1.50
2019-03-31T07:53:43.821Z,1.80
2019-03-31T07:56:15.890Z,1.33
2019-03-31T07:58:43.240Z,1.60
2019-03-31T08:01:12.102Z,1.30
2019-03-31T08:03:40.979Z,1.57
2019-03-31T08:06:09.866Z,1.80
2019-03-31T08:08:38.727Z,1.93
2019-03-31T08:11:07.822Z,1.87
2019-03-31T08:13:36.679Z,1.40
2019-03-31T08:16:05.529Z,1.40
2019-03-31T08:18:34.547Z,1.40
2019-03-31T08:21:03.392Z,1.77
2019-03-31T08:23:32.270Z,1.30
2019-03-31T08:26:01.122Z,1.80
2019-03-31T08:28:29.952Z,1.70
2019-03-31T08:30:58.813Z,1.80
2019-03-31T08:33:27.652Z,1.93
2019-03-31T08:35:56.554Z,1.40
2019-03-31T08:38:25.503Z,1.40
2019-03-31T08:40:54.506Z,1.30
2019-03-31T08:43:23.493Z,1.97
2019-03-31T08:45:52.417Z,1.87
2019-03-31T08:48:21.274Z,1.80
2019-03-31T08:50:50.173Z,1.60
2019-03-31T08:53:19.054Z,1.80
2019-03-31T08:55:47.980Z,1.50
2019-03-31T08:58:16.866Z,2.00
2019-03-31T09:00:49.759Z,1.90
2019-03-31T09:03:18.742Z,1.87
2019-03-31T09:06:00.566Z,1.20
2019-03-31T09:08:18.190Z,2.00
2019-03-31T09:10:47.058Z,1.40
2019-03-31T09:13:17.535Z,1.50
2019-03-31T09:15:46.375Z,1.50
2019-03-31T09:18:15.265Z,1.50
2019-03-31T09:20:44.127Z,1.80
2019-03-31T09:23:12.994Z,1.40
2019-03-31T09:25:41.822Z,1.50
2019-03-31T09:28:10.650Z,1.90
2019-03-31T09:30:39.533Z,1.40
2019-03-31T09:33:08.434Z,1.73
2019-03-31T09:35:37.298Z,1.40
2019-03-31T09:38:06.139Z,1.40
2019-03-31T09:40:34.966Z,1.90
2019-03-31T09:43:03.794Z,1.80
2019-03-31T09:45:32.670Z,2.00
2019-03-31T09:48:01.569Z,1.80
2019-03-31T09:50:30.440Z,1.40
2019-03-31T09:52:59.439Z,1.97
2019-03-31T09:55:28.277Z,1.40
2019-03-31T09:57:57.170Z,1.80
2019-03-31T10:00:48.077Z,1.40
2019-03-31T10:03:16.995Z,1.70
2019-03-31T10:05:47.888Z,1.50
2019-03-31T10:08:16.426Z,1.50
2019-03-31T10:10:45.270Z,1.90
2019-03-31T10:13:14.121Z,1.50
2019-03-31T10:15:42.978Z,1.60
2019-03-31T10:18:11.798Z,1.50
2019-03-31T10:20:40.606Z,1.40
2019-03-31T10:23:09.538Z,2.00
2019-03-31T10:25:38.385Z,1.90
2019-03-31T10:28:07.233Z,1.40
2019-03-31T10:30:36.153Z,1.40
2019-03-31T10:33:05.299Z,1.40
2019-03-31T10:35:34.168Z,1.90
2019-03-31T10:38:03.079Z,1.40
2019-03-31T10:40:31.922Z,1.20
2019-03-31T10:43:00.795Z,1.50
2019-03-31T10:45:29.734Z,1.30
2019-03-31T10:47:58.596Z,1.33
2019-03-31T10:50:27.518Z,1.33
2019-03-31T10:52:56.393Z,1.40
2019-03-31T10:55:25.223Z,1.27
2019-03-31T10:57:54.074Z,1.47
2019-03-31T11:00:31.468Z,1.20
2019-03-31T11:03:00.460Z,1.30
2019-03-31T11:05:29.380Z,1.17
2019-03-31T11:07:58.245Z,1.37
2019-03-31T11:10:27.059Z,1.17
2019-03-31T11:12:55.882Z,1.30
2019-03-31T11:15:24.727Z,1.30
2019-03-31T11:17:53.558Z,1.30
2019-03-31T11:20:22.370Z,1.20
2019-03-31T11:22:58.679Z,1.20
2019-03-31T11:25:29.293Z,1.30
2019-03-31T11:27:58.026Z,1.20
2019-03-31T11:30:26.975Z,1.20
2019-03-31T11:32:55.872Z,1.30
2019-03-31T11:35:24.690Z,1.27
2019-03-31T11:37:53.557Z,1.20
2019-03-31T11:40:22.376Z,1.20
2019-03-31T11:42:51.199Z,1.20
2019-03-31T11:45:20.075Z,1.20
2019-03-31T11:47:48.895Z,1.20
2019-03-31T11:50:17.720Z,1.30
2019-03-31T11:52:46.582Z,1.20
2019-03-31T11:55:15.416Z,0.97
2019-03-31T11:57:44.321Z,0.90
2019-03-31T12:00:15.519Z,1.23
2019-03-31T12:02:44.420Z,1.30
2019-03-31T12:05:13.355Z,1.40
2019-03-31T12:07:46.968Z,1.30
2019-03-31T12:10:12.802Z,1.20
2019-03-31T12:12:41.643Z,1.20
2019-03-31T12:15:10.486Z,1.30
2019-03-31T12:17:39.329Z,1.10
2019-03-31T12:20:08.276Z,1.20
2019-03-31T12:22:37.126Z,1.00
2019-03-31T12:25:05.982Z,1.30
2019-03-31T12:27:34.810Z,1.37
2019-03-31T12:30:03.848Z,1.07
2019-03-31T12:32:32.676Z,1.10
2019-03-31T12:35:01.508Z,1.00
2019-03-31T12:37:41.674Z,1.20
2019-03-31T12:40:00.959Z,1.30
2019-03-31T12:42:29.801Z,1.30
2019-03-31T12:44:58.660Z,1.17
2019-03-31T12:47:27.483Z,1.10
2019-03-31T12:49:56.306Z,1.10
2019-03-31T12:52:25.165Z,1.20
2019-03-31T12:54:54.049Z,1.13
2019-03-31T12:57:22.896Z,0.90
2019-03-31T12:59:51.736Z,1.20
2019-03-31T13:02:20.647Z,1.10
2019-03-31T13:04:49.470Z,1.30
2019-03-31T13:07:18.331Z,1.00
2019-03-31T13:09:47.178Z,1.20
2019-03-31T13:12:16.145Z,1.20
2019-03-31T13:14:45.273Z,1.30
2019-03-31T13:17:14.204Z,1.30
2019-03-31T13:19:43.115Z,1.23
2019-03-31T13:22:11.969Z,1.30
2019-03-31T13:24:40.968Z,0.93
2019-03-31T13:27:09.934Z,1.03
2019-03-31T13:29:38.788Z,1.20
2019-03-31T13:32:07.647Z,1.20
2019-03-31T13:34:55.393Z,1.20
2019-03-31T13:37:24.250Z,1.30
2019-03-31T13:39:53.088Z,1.17
2019-03-31T13:42:21.949Z,1.00
2019-03-31T13:44:50.845Z,1.13
2019-03-31T13:47:19.662Z,1.20
2019-03-31T13:49:48.500Z,1.30
2019-03-31T13:52:17.434Z,1.23
2019-03-31T13:54:46.287Z,1.20
2019-03-31T13:57:15.598Z,1.20
2019-03-31T13:59:44.774Z,1.10
2019-03-31T14:02:13.716Z,1.20
2019-03-31T14:04:51.433Z,1.10
2019-03-31T14:07:13.110Z,1.30
2019-03-31T14:09:41.935Z,1.20
2019-03-31T14:12:10.766Z,1.00
2019-03-31T14:14:39.723Z,1.13
2019-03-31T14:17:08.538Z,1.20
2019-03-31T14:19:37.365Z,1.20
2019-03-31T14:22:06.220Z,1.20
2019-03-31T14:24:35.041Z,1.20
2019-03-31T14:27:03.881Z,1.50
2019-03-31T14:29:34.307Z,1.10
2019-03-31T14:32:03.146Z,1.10
2019-03-31T14:34:31.964Z,1.20
2019-03-31T14:37:00.838Z,1.13
2019-03-31T14:39:29.794Z,1.20
2019-03-31T14:41:58.645Z,1.00
2019-03-31T14:44:27.524Z,1.00
2019-03-31T14:46:56.450Z,1.20
2019-03-31T14:49:26.014Z,1.20
2019-03-31T14:51:55.118Z,1.30
2019-03-31T14:54:24.095Z,1.10
2019-03-31T14:56:52.954Z,1.30
2019-03-31T14:59:21.834Z,1.13
2019-03-31T15:01:50.683Z,1.30
2019-03-31T15:04:38.482Z,1.10
2019-03-31T15:07:07.368Z,1.10
2019-03-31T15:09:36.273Z,1.20
2019-03-31T15:12:05.171Z,1.20
2019-03-31T15:14:34.011Z,0.90
2019-03-31T15:17:02.931Z,1.10
2019-03-31T15:19:31.842Z,1.00
2019-03-31T15:22:00.777Z,1.20
2019-03-31T15:24:29.645Z,1.10
2019-03-31T15:26:58.481Z,1.00
2019-03-31T15:29:27.311Z,1.20
2019-03-31T15:31:56.147Z,1.20
2019-03-31T15:34:25.062Z,1.10
2019-03-31T15:36:53.931Z,1.07
2019-03-31T15:39:22.748Z,1.10
2019-03-31T15:41:51.607Z,1.20
2019-03-31T15:44:20.443Z,1.10
2019-03-31T15:46:49.274Z,1.17
2019-03-31T15:49:18.112Z,1.17
2019-03-31T15:51:47.006Z,1.17
2019-03-31T15:54:15.912Z,1.00
2019-03-31T15:56:44.878Z,1.17
2019-03-31T15:59:13.704Z,1.30
2019-03-31T16:01:42.559Z,1.10
2019-03-31T16:04:11.432Z,1.07
2019-03-31T16:06:40.334Z,1.07
2019-03-31T16:09:22.464Z,1.20
2019-03-31T16:11:52.887Z,1.20
2019-03-31T16:14:09.562Z,1.20
2019-03-31T16:16:38.156Z,1.27
2019-03-31T16:19:06.812Z,1.30
2019-03-31T16:21:35.388Z,1.20
2019-03-31T16:24:03.944Z,1.07
2019-03-31T16:26:32.545Z,1.20
2019-03-31T16:29:01.132Z,1.20
2019-03-31T16:31:29.713Z,1.10
2019-03-31T16:33:58.298Z,1.30
2019-03-31T16:36:26.915Z,1.30
2019-03-31T16:38:55.521Z,1.20
2019-03-31T16:41:24.158Z,1.30
2019-03-31T16:43:52.720Z,1.30
2019-03-31T16:46:21.271Z,1.30
2019-03-31T16:48:49.864Z,1.40
2019-03-31T16:51:18.459Z,1.30
2019-03-31T16:53:47.025Z,1.30
2019-03-31T16:56:15.624Z,1.30
2019-03-31T16:58:44.170Z,1.30
2019-03-31T17:01:12.866Z,1.30
2019-03-31T17:03:41.467Z,1.20
2019-03-31T17:06:10.055Z,1.30
2019-03-31T17:08:38.704Z,1.20
2019-03-31T17:11:07.294Z,1.30
2019-03-31T17:13:35.870Z,1.30
2019-03-31T17:16:04.443Z,1.30
2019-03-31T17:18:33.018Z,1.30
2019-03-31T17:21:01.595Z,1.30
2019-03-31T17:23:30.142Z,1.40
2019-03-31T17:25:59.803Z,1.20
2019-03-31T17:28:28.388Z,1.30
2019-03-31T17:30:56.958Z,1.50
2019-03-31T17:33:25.513Z,1.40
2019-03-31T17:35:54.298Z,1.40
2019-03-31T17:38:22.873Z,1.30
2019-03-31T17:40:53.204Z,1.40
2019-03-31T17:43:21.843Z,1.70
2019-03-31T17:45:50.519Z,1.40
2019-03-31T17:48:19.155Z,1.30
2019-03-31T17:50:47.791Z,1.20
2019-03-31T17:53:16.385Z,1.90
2019-03-31T17:55:46.314Z,1.50
2019-03-31T17:58:15.010Z,1.77
2019-03-31T18:00:43.627Z,1.57
2019-03-31T18:03:15.453Z,1.60
2019-03-31T18:05:42.690Z,1.60
2019-03-31T18:08:11.374Z,1.50
2019-03-31T18:10:40.017Z,1.50
2019-03-31T18:13:08.673Z,1.20
2019-03-31T18:15:37.330Z,2.00
2019-03-31T18:18:05.946Z,1.80
2019-03-31T18:20:34.822Z,2.20
2019-03-31T18:23:03.622Z,1.33
2019-03-31T18:25:32.295Z,2.13
2019-03-31T18:28:00.944Z,1.60
2019-03-31T18:30:29.611Z,2.00
2019-03-31T18:32:58.163Z,1.67
2019-03-31T18:35:26.757Z,1.90
2019-03-31T18:37:55.367Z,1.83
2019-03-31T18:40:34.765Z,2.10
2019-03-31T18:42:54.614Z,1.50
2019-03-31T18:45:23.227Z,2.10
2019-03-31T18:47:51.834Z,2.10
2019-03-31T18:50:20.439Z,2.10
2019-03-31T18:52:49.104Z,1.67
2019-03-31T18:55:27.809Z,1.50
2019-03-31T18:58:27.597Z,2.03
2019-03-31T19:01:23.934Z,2.10
2019-03-31T19:04:13.071Z,2.10
2019-03-31T19:07:21.984Z,1.40
2019-03-31T19:10:08.293Z,2.20
2019-03-31T19:13:01.765Z,2.10
2019-03-31T19:15:48.030Z,2.20
2019-03-31T19:18:39.018Z,2.07
2019-03-31T19:21:54.800Z,2.10
2019-03-31T19:24:45.832Z,2.20
2019-03-31T19:27:37.741Z,2.17
2019-03-31T19:30:23.117Z,1.80
2019-03-31T19:33:08.599Z,2.20
2019-03-31T19:35:51.680Z,2.07
2019-03-31T19:38:45.135Z,1.60
2019-03-31T19:41:35.487Z,1.70
2019-03-31T19:44:26.532Z,1.60
2019-03-31T19:47:29.119Z,2.20
2019-03-31T19:50:12.238Z,2.30
2019-03-31T19:53:00.086Z,2.10
2019-03-31T19:56:06.881Z,1.60
2019-03-31T19:58:42.853Z,2.30
2019-03-31T20:01:18.158Z,2.20
2019-03-31T20:04:04.383Z,2.30
2019-03-31T20:06:43.694Z,2.20
2019-03-31T20:09:31.948Z,1.90
2019-03-31T20:12:19.806Z,2.37
2019-03-31T20:15:10.472Z,1.70
2019-03-31T20:17:45.867Z,2.20
2019-03-31T20:20:20.827Z,2.20
2019-03-31T20:23:08.483Z,1.90
2019-03-31T20:25:49.691Z,2.40
2019-03-31T20:28:40.218Z,1.70
2019-03-31T20:31:35.791Z,2.27
2019-03-31T20:34:16.833Z,1.60
2019-03-31T20:37:13.131Z,1.60
2019-03-31T20:40:00.862Z,1.70
2019-03-31T20:42:36.447Z,1.90
2019-03-31T20:45:05.245Z,1.80
2019-03-31T20:47:33.828Z,1.70
2019-03-31T20:50:02.388Z,1.80
2019-03-31T20:52:31.000Z,1.77
2019-03-31T20:54:59.560Z,1.80
2019-03-31T20:57:28.193Z,2.70
2019-03-31T20:59:56.786Z,2.50
2019-03-31T21:02:25.524Z,1.90
2019-03-31T21:04:54.102Z,2.50
2019-03-31T21:07:22.693Z,1.90
2019-03-31T21:09:51.246Z,2.00
2019-03-31T21:12:19.817Z,2.40
2019-03-31T21:14:50.326Z,2.50
2019-03-31T21:17:18.868Z,2.50
2019-03-31T21:19:47.431Z,2.37
2019-03-31T21:22:16.039Z,1.90
2019-03-31T21:24:44.618Z,2.40
2019-03-31T21:27:13.198Z,1.80
2019-03-31T21:29:41.773Z,2.50
2019-03-31T21:32:10.378Z,1.80
2019-03-31T21:34:38.955Z,1.80
2019-03-31T21:37:07.537Z,2.00
2019-03-31T21:39:36.074Z,1.90
2019-03-31T21:42:04.634Z,2.40
2019-03-31T21:44:33.247Z,2.00
2019-03-31T21:47:01.826Z,2.00
2019-03-31T21:49:30.423Z,1.93
2019-03-31T21:51:59.026Z,1.80
2019-03-31T21:54:27.591Z,2.00
2019-03-31T21:56:56.138Z,2.00
2019-03-31T21:59:24.719Z,1.73
2019-03-31T22:01:53.269Z,2.20
2019-03-31T22:04:21.825Z,2.10
2019-03-31T22:06:50.411Z,2.10
2019-03-31T22:09:18.962Z,2.10
2019-03-31T22:11:47.538Z,2.10
2019-03-31T22:14:17.062Z,2.10
2019-03-31T22:16:45.654Z,2.07
2019-03-31T22:19:14.270Z,2.50
2019-03-31T22:21:42.937Z,1.90
2019-03-31T22:24:11.544Z,2.07
2019-03-31T22:26:40.143Z,2.10
2019-03-31T22:29:08.678Z,1.90
2019-03-31T22:31:37.257Z,2.10
2019-03-31T22:34:05.831Z,2.07
2019-03-31T22:36:34.749Z,2.00
2019-03-31T22:39:05.278Z,1.90
2019-03-31T22:41:33.857Z,2.20
2019-03-31T22:44:02.411Z,2.60
2019-03-31T22:46:30.990Z,2.10
2019-03-31T22:48:59.566Z,2.47
2019-03-31T22:51:28.138Z,3.00
2019-03-31T22:53:57.276Z,1.90
2019-03-31T22:56:25.867Z,2.00
2019-03-31T22:58:54.401Z,2.10
2019-03-31T23:01:22.951Z,2.20
2019-03-31T23:03:51.525Z,2.80
2019-03-31T23:06:20.070Z,2.47
2019-03-31T23:08:48.740Z,2.90
2019-03-31T23:11:17.342Z,1.90
2019-03-31T23:13:45.902Z,2.63
2019-03-31T23:16:14.758Z,2.10
2019-03-31T23:18:43.361Z,2.03
2019-03-31T23:21:11.923Z,2.23
2019-03-31T23:23:40.474Z,2.70
2019-03-31T23:26:09.018Z,2.20
2019-03-31T23:28:46.298Z,2.67
2019-03-31T23:31:15.610Z,2.10
2019-03-31T23:33:44.206Z,2.13
2019-03-31T23:36:12.764Z,2.20
2019-03-31T23:38:41.330Z,2.90
2019-03-31T23:41:09.886Z,2.30
2019-03-31T23:43:38.589Z,2.80
2019-03-31T23:46:07.303Z,2.30
2019-03-31T23:48:35.841Z,2.23
2019-03-31T23:51:04.396Z,2.00
2019-03-31T23:53:33.001Z,2.30
2019-03-31T23:56:01.586Z,2.40
2019-03-31T23:58:30.130Z,2.23
